Time;durP1;ratioP1;P1;durP2;ratioP2;P2;SDS_P1;SDS_P2;PMS_P1;PMS_P2;Temp;Humidity;BMP_temperature;BMP_pressure;BME280_temperature;BME280_humidity;BME280_pressure;Samples;Min_cycle;Max_cycle;Signal;HPM_P1;HPM_P2
2021/01/31 00:02:02;;;;;;;24.33;14.10;;;;;;;2.91;58.47;100371.19;4822869;29;124345;-73
2021/01/31 00:04:28;;;;;;;25.15;13.77;;;;;;;2.90;58.46;100366.88;4824259;29;123905;-74
2021/01/31 00:06:56;;;;;;;22.15;13.10;;;;;;;2.89;58.53;100367.75;4822220;29;113290;-74
2021/01/31 00:09:22;;;;;;;22.52;13.68;;;;;;;2.89;58.92;100374.75;4813253;29;113778;-75
2021/01/31 00:11:49;;;;;;;25.27;13.68;;;;;;;2.88;58.77;100379.13;4820353;29;125170;-74
2021/01/31 00:14:16;;;;;;;23.20;14.02;;;;;;;2.89;58.66;100383.44;4811799;29;123310;-74
2021/01/31 00:16:43;;;;;;;25.77;15.20;;;;;;;2.86;58.62;100378.31;4807841;29;114401;-74
2021/01/31 00:19:09;;;;;;;26.23;16.10;;;;;;;2.84;58.69;100374.81;4820027;29;114496;-73
2021/01/31 00:21:36;;;;;;;24.23;14.48;;;;;;;2.81;58.53;100380.13;4819522;29;123128;-73
2021/01/31 00:24:03;;;;;;;25.20;15.32;;;;;;;2.79;58.64;100376.69;4819687;29;123336;-74
2021/01/31 00:26:29;;;;;;;23.38;14.10;;;;;;;2.76;58.76;100371.53;4820267;29;114414;-74
2021/01/31 00:28:56;;;;;;;24.42;14.23;;;;;;;2.74;58.77;100375.94;4815722;29;113442;-75
2021/01/31 00:31:24;;;;;;;23.58;14.68;;;;;;;2.71;58.90;100373.34;4817990;29;123827;-73
2021/01/31 00:33:50;;;;;;;24.63;14.68;;;;;;;2.69;58.82;100380.38;4820586;29;122739;-73
2021/01/31 00:36:17;;;;;;;27.95;16.45;;;;;;;2.67;58.82;100382.16;4816575;29;114304;-73
2021/01/31 00:38:44;;;;;;;26.20;15.10;;;;;;;2.64;59.15;100387.47;4808885;29;114353;-73
2021/01/31 00:41:10;;;;;;;26.65;16.50;;;;;;;2.62;59.05;100389.22;4821271;29;123435;-74
2021/01/31 00:43:37;;;;;;;27.33;14.75;;;;;;;2.59;58.88;100389.31;4816293;29;124271;-74
2021/01/31 00:46:04;;;;;;;25.48;14.65;;;;;;;2.57;59.18;100396.31;4805953;29;114318;-73
2021/01/31 00:48:30;;;;;;;25.63;14.35;;;;;;;2.56;59.11;100391.97;4813253;29;115007;-73
2021/01/31 00:50:57;;;;;;;26.55;15.80;;;;;;;2.55;59.37;100392.88;4816026;29;124700;-73
2021/01/31 00:53:25;;;;;;;24.08;14.07;;;;;;;2.52;59.08;100388.56;4804650;29;123034;-73
2021/01/31 00:56:02;;;;;;;25.13;14.88;;;;;;;2.51;59.35;100390.31;4805007;29;113919;-72
2021/01/31 00:58:38;;;;;;;26.70;16.15;;;;;;;2.48;59.21;100392.97;4808223;29;113502;-74
2021/01/31 01:01:04;;;;;;;27.80;16.23;;;;;;;2.47;59.38;100386.03;4805875;29;125142;-73
2021/01/31 01:03:31;;;;;;;26.10;15.50;;;;;;;2.45;59.36;100387.81;4820232;29;122704;-72
2021/01/31 01:06:00;;;;;;;28.75;17.85;;;;;;;2.44;59.38;100391.31;4816096;29;115014;-73
2021/01/31 01:08:27;;;;;;;26.50;16.15;;;;;;;2.41;59.40;100391.41;4805846;29;113016;-72
2021/01/31 01:10:54;;;;;;;26.50;15.18;;;;;;;2.40;59.59;100400.09;4804605;29;124624;-72
2021/01/31 01:13:20;;;;;;;27.25;16.25;;;;;;;2.40;59.59;100397.50;4804736;29;124038;-72
2021/01/31 01:15:47;;;;;;;25.27;16.30;;;;;;;2.39;59.73;100398.38;4815768;29;114991;-72
2021/01/31 01:18:14;;;;;;;24.77;13.63;;;;;;;2.39;59.46;100398.38;4818883;29;114552;-73
2021/01/31 01:20:40;;;;;;;25.35;16.30;;;;;;;2.39;59.42;100387.91;4815871;29;124456;-72
2021/01/31 01:23:07;;;;;;;25.38;14.63;;;;;;;2.39;59.51;100398.38;4818555;29;123368;-72
2021/01/31 01:25:34;;;;;;;27.63;16.63;;;;;;;2.38;59.35;100401.88;4820797;29;114779;-72
2021/01/31 01:28:01;;;;;;;27.02;15.25;;;;;;;2.36;59.27;100398.44;4819093;29;114575;-71
2021/01/31 01:30:29;;;;;;;26.35;15.27;;;;;;;2.34;59.66;100400.22;4815916;29;123477;-71
2021/01/31 01:32:58;;;;;;;26.77;16.30;;;;;;;2.31;59.54;100405.50;4819761;29;124237;-71
2021/01/31 01:35:25;;;;;;;26.52;16.08;;;;;;;2.31;59.50;100408.13;4806534;29;114081;-70
2021/01/31 01:37:52;;;;;;;27.75;16.13;;;;;;;2.29;59.52;100407.28;4824869;29;114672;-72
2021/01/31 01:40:33;;;;;;;27.77;15.38;;;;;;;2.27;60.04;100403.84;4820855;29;124183;-71
2021/01/31 01:43:00;;;;;;;23.80;14.57;;;;;;;2.27;59.52;100409.06;4815637;29;123908;-72
2021/01/31 01:45:27;;;;;;;24.50;14.18;;;;;;;2.26;59.56;100412.56;4813415;29;115474;-72
2021/01/31 01:47:58;;;;;;;26.38;15.52;;;;;;;2.27;59.63;100414.28;4808987;29;114014;-71
2021/01/31 01:50:37;;;;;;;24.80;14.10;;;;;;;2.25;59.55;100416.06;4812472;29;123068;-72
2021/01/31 01:53:06;;;;;;;25.83;14.75;;;;;;;2.26;59.52;100402.09;4819259;29;123782;-72
2021/01/31 01:55:39;;;;;;;25.55;14.05;;;;;;;2.26;59.43;100407.31;4821156;29;114064;-72
2021/01/31 01:58:12;;;;;;;25.42;14.45;;;;;;;2.27;59.55;100403.84;4821745;29;113549;-72
2021/01/31 02:00:43;;;;;;;25.85;15.05;;;;;;;2.29;59.43;100402.06;4820352;29;122903;-72
2021/01/31 02:03:24;;;;;;;23.65;14.38;;;;;;;2.28;59.67;100402.94;4802733;29;125082;-71
2021/01/31 02:06:01;;;;;;;24.15;13.25;;;;;;;2.27;59.31;100401.22;4818350;29;113578;-71
2021/01/31 02:08:28;;;;;;;25.50;13.43;;;;;;;2.26;59.41;100407.31;4803879;29;113118;-72
2021/01/31 02:10:54;;;;;;;27.40;14.30;;;;;;;2.27;59.31;100398.63;4816999;29;124242;-72
2021/01/31 02:13:21;;;;;;;22.83;13.52;;;;;;;2.28;59.42;100400.31;4817061;29;123068;-71
2021/01/31 02:15:52;;;;;;;23.58;14.18;;;;;;;2.28;59.45;100406.44;4820609;29;114314;-71
2021/01/31 02:18:49;;;;;;;23.42;13.20;;;;;;;2.30;59.25;100403.78;4819711;29;114150;-72
2021/01/31 02:21:50;;;;;;;25.00;13.63;;;;;;;2.28;59.34;100406.44;4811564;29;124251;-72
2021/01/31 02:24:52;;;;;;;25.38;14.15;;;;;;;2.28;59.07;100400.31;4815657;29;123408;-71
2021/01/31 02:28:01;;;;;;;24.35;15.07;;;;;;;2.27;59.14;100393.38;4788294;29;114656;-71
2021/01/31 02:30:43;;;;;;;21.95;12.55;;;;;;;2.24;58.76;100393.44;4792131;29;113941;-72
2021/01/31 02:33:48;;;;;;;27.77;16.35;;;;;;;2.23;59.03;100402.19;4818083;29;124219;-73
2021/01/31 02:36:34;;;;;;;28.50;16.20;;;;;;;2.19;59.02;100395.28;4813400;29;123490;-70
2021/01/31 02:39:15;;;;;;;25.90;14.48;;;;;;;2.13;59.24;100402.34;4804720;29;113971;-71
2021/01/31 02:42:20;;;;;;;25.35;13.90;;;;;;;2.09;59.13;100390.22;4805556;29;113489;-71
2021/01/31 02:45:13;;;;;;;26.42;14.50;;;;;;;2.07;59.18;100385.91;4816652;29;124478;-71
2021/01/31 02:47:47;;;;;;;25.67;14.75;;;;;;;2.06;59.29;100384.19;4790967;29;124441;-71
2021/01/31 02:50:29;;;;;;;25.70;15.02;;;;;;;2.03;59.09;100387.69;4828300;29;115106;-71
2021/01/31 02:53:06;;;;;;;24.63;13.80;;;;;;;2.00;59.08;100385.16;4820173;29;114936;-71
2021/01/31 02:55:41;;;;;;;24.92;14.18;;;;;;;1.99;59.25;100383.41;4822305;29;124136;-71
2021/01/31 02:58:16;;;;;;;27.02;15.27;;;;;;;1.98;59.26;100381.72;4820741;29;123306;-71
2021/01/31 03:01:02;;;;;;;;;;;;;;;1.97;59.19;100384.34;4809009;29;113543;-71
2021/01/31 03:03:35;;;;;;;28.67;15.48;;;;;;;1.95;59.18;100384.38;4792393;29;112303;-70
2021/01/31 03:06:05;;;;;;;26.35;14.70;;;;;;;1.92;58.92;100387.00;4821789;29;121914;-71
2021/01/31 03:08:42;;;;;;;26.42;14.73;;;;;;;1.89;59.25;100379.25;4812889;29;123780;-70
2021/01/31 03:11:15;;;;;;;30.30;15.40;;;;;;;1.87;59.27;100381.03;4818203;29;113329;-71
2021/01/31 03:13:53;;;;;;;28.58;16.90;;;;;;;1.84;59.27;100375.84;4813495;29;113951;-71
2021/01/31 03:16:32;;;;;;;26.98;13.85;;;;;;;1.81;59.20;100373.28;4814523;29;123437;-71
2021/01/31 03:19:12;;;;;;;29.73;15.40;;;;;;;1.81;59.21;100378.50;4818176;29;123997;-71
2021/01/31 03:21:42;;;;;;;25.23;14.50;;;;;;;1.81;59.22;100378.50;4819686;29;115319;-70
2021/01/31 03:24:23;;;;;;;27.27;14.82;;;;;;;1.79;59.40;100380.28;4818501;29;112508;-70
2021/01/31 03:26:56;;;;;;;27.75;14.77;;;;;;;1.79;59.11;100385.50;4804234;29;124138;-71
2021/01/31 03:29:23;;;;;;;26.27;15.10;;;;;;;1.78;59.33;100384.66;4821983;29;123028;-70
2021/01/31 03:31:56;;;;;;;30.10;15.57;;;;;;;1.78;59.13;100378.56;4813691;29;113545;-70
2021/01/31 03:34:29;;;;;;;25.17;14.77;;;;;;;1.78;59.44;100383.78;4818559;29;114980;-71
2021/01/31 03:37:02;;;;;;;30.45;15.68;;;;;;;1.74;59.19;100376.00;4814208;29;124274;-71
2021/01/31 03:39:31;;;;;;;29.40;15.88;;;;;;;1.73;59.40;100374.28;4817177;29;123906;-73
2021/01/31 03:41:58;;;;;;;31.35;15.30;;;;;;;1.71;59.33;100383.91;4806325;29;113454;-70
2021/01/31 03:44:25;;;;;;;27.95;15.20;;;;;;;1.69;59.36;100380.44;4813103;29;114117;-69
2021/01/31 03:47:01;;;;;;;32.45;17.50;;;;;;;1.66;59.28;100377.88;4817305;29;123751;-70
2021/01/31 03:49:35;;;;;;;29.80;16.73;;;;;;;1.63;59.38;100384.91;4817996;29;123712;-70
2021/01/31 03:52:01;;;;;;;24.33;13.93;;;;;;;1.59;59.50;100389.31;4813293;29;114664;-71
2021/01/31 03:54:28;;;;;;;27.55;15.25;;;;;;;1.58;59.54;100392.78;4803525;29;113763;-70
2021/01/31 03:57:07;;;;;;;29.38;15.10;;;;;;;1.56;59.48;100399.78;4817174;29;123393;-70
2021/01/31 03:59:39;;;;;;;28.40;15.60;;;;;;;1.55;59.49;100398.06;4821923;29;124628;-70
2021/01/31 04:02:08;;;;;;;27.92;15.70;;;;;;;1.55;59.58;100403.28;4817064;29;114744;-70
2021/01/31 04:04:49;;;;;;;29.13;15.05;;;;;;;1.52;59.41;100398.09;4807429;29;112810;-70
2021/01/31 04:07:20;;;;;;;29.27;15.25;;;;;;;1.50;59.62;100405.94;4816896;29;123832;-71
2021/01/31 04:09:47;;;;;;;28.45;15.30;;;;;;;1.50;59.63;100405.09;4818599;29;122638;-71
2021/01/31 04:12:21;;;;;;;25.88;14.32;;;;;;;1.48;59.75;100412.09;4815478;29;115184;-71
2021/01/31 04:15:00;;;;;;;28.08;14.85;;;;;;;1.48;59.52;100406.88;4802573;29;114606;-69
2021/01/31 04:17:27;;;;;;;27.25;14.55;;;;;;;1.48;59.75;100409.47;4803913;29;124226;-69
2021/01/31 04:19:53;;;;;;;29.45;15.85;;;;;;;1.48;59.67;100406.88;4819406;29;122788;-72
2021/01/31 04:22:20;;;;;;;30.20;17.40;;;;;;;1.46;59.80;100408.63;4818544;29;114468;-72
2021/01/31 04:24:47;;;;;;;30.58;16.83;;;;;;;1.44;59.65;100405.19;4820539;29;114157;-72
2021/01/31 04:27:14;;;;;;;27.70;15.65;;;;;;;1.43;59.59;100408.66;4820602;29;123554;-70
2021/01/31 04:29:41;;;;;;;31.38;17.35;;;;;;;1.42;59.73;100409.56;4822494;29;124386;-71
2021/01/31 04:32:07;;;;;;;27.92;15.05;;;;;;;1.39;59.88;100402.63;4818271;29;114933;-69
2021/01/31 04:34:34;;;;;;;28.48;16.35;;;;;;;1.37;59.84;100409.63;4815894;29;113407;-70
2021/01/31 04:37:00;;;;;;;26.98;16.25;;;;;;;1.35;59.86;100412.25;4809565;29;124144;-71
2021/01/31 04:39:27;;;;;;;29.38;15.63;;;;;;;1.35;59.86;100409.63;4813034;29;124417;-70
2021/01/31 04:41:55;;;;;;;29.50;14.77;;;;;;;1.34;60.08;100414.91;4819245;29;114539;-70
2021/01/31 04:44:22;;;;;;;29.85;17.17;;;;;;;1.33;60.22;100419.25;4803321;29;114014;-69
2021/01/31 04:47:16;;;;;;;26.70;15.55;;;;;;;1.31;60.18;100410.56;4817637;29;123264;-71
2021/01/31 04:50:17;;;;;;;28.17;15.88;;;;;;;1.30;60.03;100413.19;4802757;29;122861;-69
2021/01/31 04:53:04;;;;;;;28.40;15.43;;;;;;;1.28;60.15;100421.06;4820143;29;115055;-70
2021/01/31 04:55:50;;;;;;;27.50;15.35;;;;;;;1.28;60.20;100428.91;4804856;29;113117;-69
2021/01/31 04:58:22;;;;;;;28.98;15.73;;;;;;;1.28;60.23;100421.06;4801877;29;122781;-72
2021/01/31 05:00:57;;;;;;;27.38;15.35;;;;;;;1.27;60.28;100429.75;4800670;29;127115;-71
2021/01/31 05:03:24;;;;;;;33.78;18.33;;;;;;;1.26;60.40;100422.84;4813904;29;115754;-70
2021/01/31 05:05:59;;;;;;;30.98;17.73;;;;;;;1.23;60.43;100428.09;4806882;29;115825;-71
2021/01/31 05:08:29;;;;;;;29.83;16.67;;;;;;;1.21;60.22;100419.44;4814551;29;124532;-70
2021/01/31 05:11:00;;;;;;;28.35;16.42;;;;;;;1.19;60.37;100421.19;4820770;29;124208;-70
2021/01/31 05:14:02;;;;;;;28.90;15.57;;;;;;;1.17;60.34;100417.75;4821986;29;115054;-70
2021/01/31 05:16:29;;;;;;;29.45;15.40;;;;;;;1.18;60.32;100419.44;4757078;29;112935;-70
2021/01/31 05:19:03;;;;;;;32.10;17.70;;;;;;;1.18;60.63;100419.44;4808411;29;123979;-71
2021/01/31 05:21:32;;;;;;;28.48;14.85;;;;;;;1.17;60.49;100422.97;4816831;29;123747;-70
2021/01/31 05:24:03;;;;;;;29.25;15.98;;;;;;;1.19;60.56;100417.69;4824233;29;114137;-76
2021/01/31 05:26:37;;;;;;;29.73;15.30;;;;;;;1.18;60.60;100424.66;4822801;29;114067;-71
2021/01/31 05:29:07;;;;;;;30.67;15.93;;;;;;;1.19;60.50;100421.19;4806029;29;124048;-70
2021/01/31 05:31:36;;;;;;;31.17;15.70;;;;;;;1.21;60.40;100429.00;4809392;29;122452;-71
2021/01/31 05:34:03;;;;;;;27.95;16.17;;;;;;;1.20;60.35;100438.56;4818759;29;113553;-71
2021/01/31 05:36:33;;;;;;;31.73;15.93;;;;;;;1.21;60.34;100435.06;4817825;29;113203;-71
2021/01/31 05:39:00;;;;;;;25.70;14.88;;;;;;;1.20;60.35;100422.91;4824552;29;123722;-71
2021/01/31 05:41:35;;;;;;;27.15;13.98;;;;;;;1.20;60.28;100422.91;4809789;29;123781;-70
2021/01/31 05:44:07;;;;;;;29.10;16.15;;;;;;;1.20;60.35;100428.13;4840159;23;114996;-66
2021/01/31 05:46:47;;;;;;;29.60;17.17;;;;;;;1.20;60.12;100428.13;4831996;29;113916;-68
2021/01/31 05:49:41;;;;;;;27.95;14.52;;;;;;;1.17;60.25;100423.81;4812595;29;123005;-66
2021/01/31 05:52:22;;;;;;;29.70;18.00;;;;;;;1.16;60.15;100431.66;4829315;29;124620;-66
2021/01/31 05:54:51;;;;;;;28.83;15.25;;;;;;;1.16;60.31;100436.88;4790855;29;113629;-66
2021/01/31 05:57:23;;;;;;;28.73;14.75;;;;;;;1.14;60.35;100433.41;4806253;29;114767;-66
2021/01/31 05:59:50;;;;;;;28.25;15.48;;;;;;;1.15;60.09;100436.00;4807973;29;126387;-66
2021/01/31 06:02:28;;;;;;;27.33;14.90;;;;;;;1.14;60.27;100433.41;4804269;29;124296;-67
2021/01/31 06:05:21;;;;;;;27.15;14.32;;;;;;;1.11;60.12;100429.13;4806705;29;114251;-66
2021/01/31 06:07:59;;;;;;;28.08;14.40;;;;;;;1.10;60.33;100436.97;4800382;29;111833;-66
2021/01/31 06:10:26;;;;;;;26.33;15.00;;;;;;;1.12;60.48;100445.63;4804409;29;124455;-66
2021/01/31 06:13:03;;;;;;;27.42;15.70;;;;;;;1.13;60.33;100442.13;4805804;29;124656;-66
2021/01/31 06:15:42;;;;;;;27.45;14.63;;;;;;;1.13;60.39;100436.91;4801054;29;112533;-66
2021/01/31 06:18:28;;;;;;;27.55;14.63;;;;;;;1.12;60.14;100441.25;4808321;29;113440;-66
2021/01/31 06:21:17;;;;;;;26.52;13.85;;;;;;;1.13;60.18;100436.91;4798731;29;123134;-66
2021/01/31 06:23:53;;;;;;;25.90;14.23;;;;;;;1.13;59.69;100426.47;4805780;29;122779;-66
2021/01/31 06:26:30;;;;;;;24.50;13.68;;;;;;;1.12;60.04;100417.78;4798872;29;114159;-66
2021/01/31 06:29:06;;;;;;;27.33;14.25;;;;;;;1.12;59.96;100428.22;4807700;29;113898;-66
2021/01/31 06:31:59;;;;;;;28.48;15.45;;;;;;;1.10;59.80;100431.75;4797950;29;123796;-66
2021/01/31 06:34:26;;;;;;;26.00;14.23;;;;;;;1.08;59.69;100439.56;4807538;29;124042;-66
2021/01/31 06:37:23;;;;;;;27.70;14.65;;;;;;;1.05;59.86;100443.97;4806193;29;114214;-65
2021/01/31 06:40:10;;;;;;;25.42;13.75;;;;;;;1.03;59.89;100445.72;4798970;29;113341;-68
2021/01/31 06:42:50;;;;;;;26.88;14.65;;;;;;;1.01;60.05;100452.72;4808801;29;123811;-66
2021/01/31 06:45:29;;;;;;;23.92;13.63;;;;;;;1.00;59.88;100453.59;4802323;29;125277;-67
2021/01/31 06:48:18;;;;;;;28.58;14.55;;;;;;;0.97;59.82;100447.53;4804133;29;114487;-66
2021/01/31 06:51:06;;;;;;;25.15;14.43;;;;;;;0.94;59.83;100450.19;4810937;29;115449;-66
2021/01/31 06:53:57;;;;;;;27.83;14.95;;;;;;;0.90;59.99;100451.09;4808744;29;125396;-66
2021/01/31 06:56:51;;;;;;;25.00;13.70;;;;;;;0.86;59.93;100444.19;4802139;29;124474;-66
2021/01/31 06:59:42;;;;;;;26.05;12.80;;;;;;;0.83;59.90;100444.25;4801586;29;114463;-66
2021/01/31 07:02:32;;;;;;;26.73;13.57;;;;;;;0.83;60.17;100449.44;4806075;29;113705;-66
2021/01/31 07:05:04;;;;;;;24.73;13.80;;;;;;;0.85;60.16;100452.91;4803837;29;124260;-66
2021/01/31 07:07:43;;;;;;;26.08;14.00;;;;;;;0.86;60.08;100444.19;4799838;29;122131;-66
2021/01/31 07:10:39;;;;;;;28.30;14.65;;;;;;;0.87;59.95;100440.72;4803089;29;114292;-66
2021/01/31 07:13:21;;;;;;;26.15;13.15;;;;;;;0.87;59.95;100425.06;4799787;29;114267;-65
2021/01/31 07:16:02;;;;;;;22.88;12.98;;;;;;;0.86;60.01;100431.16;4799164;29;124684;-66
2021/01/31 07:18:36;;;;;;;24.88;13.48;;;;;;;0.88;59.79;100432.00;4785463;29;123155;-65
2021/01/31 07:21:15;;;;;;;27.60;14.43;;;;;;;0.89;59.99;100428.50;4807016;29;113648;-66
2021/01/31 07:23:45;;;;;;;25.83;14.38;;;;;;;0.92;60.15;100428.50;4799291;29;114319;-67
2021/01/31 07:26:14;;;;;;;24.02;12.80;;;;;;;0.94;59.85;100442.38;4819714;29;123507;-66
2021/01/31 07:28:43;;;;;;;26.40;13.65;;;;;;;0.96;59.91;100444.94;4807136;29;124408;-67
2021/01/31 07:31:17;;;;;;;26.13;13.43;;;;;;;0.97;59.72;100447.53;4818510;29;113024;-66
2021/01/31 07:33:49;;;;;;;28.65;13.18;;;;;;;1.00;59.89;100453.59;4816142;29;114333;-67
2021/01/31 07:36:21;;;;;;;27.90;13.45;;;;;;;1.02;59.94;100455.31;4801312;29;124912;-67
2021/01/31 07:39:00;;;;;;;25.13;13.88;;;;;;;1.03;59.79;100450.94;4802021;29;122881;-67
2021/01/31 07:41:28;;;;;;;27.05;14.05;;;;;;;1.04;59.57;100450.09;4800595;29;96867;-67
2021/01/31 07:44:01;;;;;;;25.90;13.57;;;;;;;1.02;59.93;100449.22;4809659;29;114775;-67
2021/01/31 07:46:28;;;;;;;26.98;14.13;;;;;;;1.02;59.75;100438.78;4798181;29;125064;-67
2021/01/31 07:49:01;;;;;;;25.20;13.52;;;;;;;1.00;59.93;100435.31;4806580;29;123814;-67
2021/01/31 07:51:27;;;;;;;24.77;14.07;;;;;;;1.02;59.82;100430.97;4802392;29;113804;-67
2021/01/31 07:53:55;;;;;;;24.70;13.98;;;;;;;1.01;59.76;100437.94;4806087;29;116066;-67
2021/01/31 07:56:21;;;;;;;25.70;13.70;;;;;;;1.00;59.84;100440.53;4813710;29;124136;-67
2021/01/31 07:58:48;;;;;;;25.17;13.68;;;;;;;1.02;59.94;100438.78;4816285;29;124256;-66
2021/01/31 08:01:41;;;;;;;26.63;14.70;;;;;;;1.00;59.91;100444.03;4818660;29;114100;-66
2021/01/31 08:04:16;;;;;;;22.98;12.77;;;;;;;1.01;59.82;100447.50;4802524;29;115401;-68
2021/01/31 08:06:54;;;;;;;26.58;14.18;;;;;;;1.02;59.87;100451.81;4815506;29;124762;-67
2021/01/31 08:09:29;;;;;;;27.38;15.73;;;;;;;1.01;60.12;100452.72;4809702;29;123884;-66
2021/01/31 08:12:06;;;;;;;28.25;15.95;;;;;;;1.01;60.25;100460.53;4819631;29;115203;-67
2021/01/31 08:15:10;;;;;;;25.83;15.57;;;;;;;1.00;60.52;100466.63;4807710;29;114771;-67
2021/01/31 08:17:38;;;;;;;25.45;14.15;;;;;;;1.01;60.61;100468.34;4809063;29;124088;-67
2021/01/31 08:20:17;;;;;;;25.58;13.70;;;;;;;1.02;60.80;100475.28;4801289;29;122868;-66
2021/01/31 08:22:44;;;;;;;27.70;14.88;;;;;;;1.07;60.54;100481.31;4810197;29;113215;-66
2021/01/31 08:25:11;;;;;;;27.60;14.25;;;;;;;1.11;60.86;100490.81;4801564;29;113135;-67
2021/01/31 08:27:38;;;;;;;25.20;14.10;;;;;;;1.16;60.75;100494.25;4803730;29;124215;-67
2021/01/31 08:30:33;;;;;;;29.20;13.90;;;;;;;1.23;60.81;100501.13;4797492;29;124353;-66
2021/01/31 08:33:06;;;;;;;28.20;13.77;;;;;;;1.33;61.17;100504.47;4805637;29;114735;-67
2021/01/31 08:35:40;;;;;;;27.02;15.70;;;;;;;1.40;60.94;100492.22;4800962;29;114975;-66
2021/01/31 08:38:16;;;;;;;27.73;14.52;;;;;;;1.45;60.62;100490.41;4800944;29;123547;-66
2021/01/31 08:40:58;;;;;;;28.17;15.65;;;;;;;1.47;60.66;100478.19;4804728;29;122960;-67
2021/01/31 08:43:33;;;;;;;25.95;14.73;;;;;;;1.50;60.55;100472.94;4793068;29;113414;-67
2021/01/31 08:46:19;;;;;;;26.45;15.40;;;;;;;1.52;60.76;100486.84;4812547;29;114476;-66
2021/01/31 08:49:10;;;;;;;25.98;15.07;;;;;;;1.57;60.58;100487.63;4798703;29;125221;-66
2021/01/31 08:51:41;;;;;;;26.13;15.50;;;;;;;1.60;60.81;100485.00;4793298;29;123939;-65
2021/01/31 08:54:20;;;;;;;30.08;15.45;;;;;;;1.62;60.73;100478.00;4808822;29;114256;-65
2021/01/31 08:56:51;;;;;;;28.98;16.13;;;;;;;1.62;60.59;100470.19;4809522;29;113693;-65
2021/01/31 08:59:31;;;;;;;27.77;16.35;;;;;;;1.63;60.76;100463.19;4798590;29;123419;-65
2021/01/31 09:02:09;;;;;;;25.88;15.02;;;;;;;1.64;60.80;100455.34;4807027;29;124126;-66
2021/01/31 09:04:47;;;;;;;25.25;14.13;;;;;;;1.68;60.70;100457.03;4810517;29;113791;-65
2021/01/31 09:07:21;;;;;;;24.73;13.55;;;;;;;1.72;60.78;100448.25;4810649;29;112665;-66
2021/01/31 09:09:53;;;;;;;25.73;13.25;;;;;;;1.79;60.94;100456.00;4812948;29;122153;-66
2021/01/31 09:12:22;;;;;;;26.45;13.75;;;;;;;1.85;61.01;100448.09;4817186;29;124278;-65
2021/01/31 09:14:50;;;;;;;26.63;13.90;;;;;;;1.93;60.90;100446.22;4818060;29;114241;-66
2021/01/31 09:17:22;;;;;;;23.92;13.43;;;;;;;1.98;60.68;100444.41;4802681;29;114052;-66
2021/01/31 09:19:49;;;;;;;25.30;13.52;;;;;;;2.05;60.65;100446.00;4802027;29;122995;-66
2021/01/31 09:22:21;;;;;;;24.95;13.38;;;;;;;2.11;60.64;100439.81;4801535;29;124118;-67
2021/01/31 09:25:00;;;;;;;24.08;12.95;;;;;;;2.18;60.63;100437.97;4817178;29;115147;-67
2021/01/31 09:27:27;;;;;;;21.15;12.43;;;;;;;2.24;60.54;100430.00;4805128;29;115122;-66
2021/01/31 09:29:59;;;;;;;23.77;12.88;;;;;;;2.27;60.29;100420.38;4785199;29;123640;-66
2021/01/31 09:32:31;;;;;;;22.63;12.60;;;;;;;2.32;59.88;100422.91;4797328;29;123100;-66
2021/01/31 09:34:59;;;;;;;20.13;12.32;;;;;;;2.36;60.46;100415.88;4800834;29;113131;-66
2021/01/31 09:37:29;;;;;;;20.02;11.85;;;;;;;2.41;60.47;100411.41;4801393;29;113180;-66
2021/01/31 09:39:58;;;;;;;24.75;13.77;;;;;;;2.46;60.44;100405.22;4818816;29;124491;-66
2021/01/31 09:42:30;;;;;;;22.40;12.30;;;;;;;2.53;60.42;100409.44;4784081;29;122943;-66
2021/01/31 09:45:01;;;;;;;23.48;11.95;;;;;;;2.62;60.52;100410.16;4817159;29;114646;-67
2021/01/31 09:47:28;;;;;;;19.92;11.70;;;;;;;2.71;60.54;100415.19;4819228;29;114659;-67
2021/01/31 09:49:58;;;;;;;20.73;13.00;;;;;;;2.79;60.32;100413.31;4805552;29;123939;-67
2021/01/31 09:52:25;;;;;;;23.05;12.13;;;;;;;2.89;60.67;100409.59;4864128;23;123034;-66
2021/01/31 09:54:52;;;;;;;21.98;12.50;;;;;;;3.00;60.28;100408.53;4828579;29;114367;-66
2021/01/31 09:57:26;;;;;;;22.85;12.10;;;;;;;3.06;60.21;100397.94;4821454;29;114711;-67
2021/01/31 10:00:09;;;;;;;20.17;12.13;;;;;;;3.13;60.02;100402.16;4822637;29;123719;-67
2021/01/31 10:02:40;;;;;;;19.80;11.52;;;;;;;3.21;59.97;100394.97;4807476;29;125438;-66
2021/01/31 10:05:11;;;;;;;19.90;12.05;;;;;;;3.26;59.96;100393.13;4824745;29;116777;-67
2021/01/31 10:07:50;;;;;;;21.60;12.45;;;;;;;3.30;59.96;100400.00;4825816;29;116927;-67
2021/01/31 10:10:22;;;;;;;22.20;11.75;;;;;;;3.38;59.88;100391.13;4804673;29;123167;-67
2021/01/31 10:13:08;;;;;;;19.02;11.55;;;;;;;3.44;59.67;100380.50;4805079;29;123289;-67
2021/01/31 10:15:40;;;;;;;18.77;11.80;;;;;;;3.49;59.71;100378.66;4790090;29;114689;-68
2021/01/31 10:18:12;;;;;;;19.50;11.52;;;;;;;3.54;59.27;100387.25;4819993;29;115217;-67
2021/01/31 10:20:40;;;;;;;20.55;12.38;;;;;;;3.55;59.19;100373.28;4809437;29;124171;-67
2021/01/31 10:23:16;;;;;;;20.02;12.68;;;;;;;3.58;59.05;100374.94;4823589;29;124133;-67
2021/01/31 10:25:56;;;;;;;19.35;12.25;;;;;;;3.61;59.41;100370.50;4833496;29;115878;-68
2021/01/31 10:28:35;;;;;;;22.33;13.00;;;;;;;3.65;59.03;100364.28;4807331;29;113366;-68
2021/01/31 10:31:02;;;;;;;18.88;12.02;;;;;;;3.67;58.88;100362.50;4822126;29;122967;-67
2021/01/31 10:33:50;;;;;;;20.92;12.93;;;;;;;3.70;58.73;100372.03;4825934;29;123956;-67
2021/01/31 10:36:27;;;;;;;19.73;12.70;;;;;;;3.73;58.93;100371.09;4816975;29;114041;-67
2021/01/31 10:39:14;;;;;;;19.48;11.55;;;;;;;3.79;59.17;100378.81;4815129;29;113135;-68
2021/01/31 10:41:43;;;;;;;19.05;11.45;;;;;;;3.86;58.70;100372.50;4821624;29;123755;-67
2021/01/31 10:44:13;;;;;;;18.30;11.77;;;;;;;3.93;58.87;100379.31;4833404;29;124467;-67
2021/01/31 10:46:40;;;;;;;18.33;12.40;;;;;;;4.01;58.72;100376.50;4806134;29;114514;-67
2021/01/31 10:49:07;;;;;;;18.63;12.35;;;;;;;4.06;58.53;100375.50;4812290;29;113495;-67
2021/01/31 10:51:35;;;;;;;17.98;11.73;;;;;;;4.14;58.63;100361.34;4820801;29;124106;-67
2021/01/31 10:54:04;;;;;;;19.67;11.63;;;;;;;4.22;58.81;100367.22;4817411;29;123975;-66
2021/01/31 10:56:30;;;;;;;19.60;12.00;;;;;;;4.29;58.46;100368.78;4804757;29;113256;-67
2021/01/31 10:58:59;;;;;;;20.73;12.55;;;;;;;4.35;58.15;100366.03;4835011;29;113879;-67
2021/01/31 11:01:26;;;;;;;18.65;11.68;;;;;;;4.40;58.10;100369.34;4821375;29;124302;-67
2021/01/31 11:03:52;;;;;;;17.48;11.68;;;;;;;4.46;58.26;100357.84;4825368;29;122440;-67
2021/01/31 11:06:22;;;;;;;20.52;12.60;;;;;;;4.54;58.05;100360.25;4837828;29;115249;-67
2021/01/31 11:08:49;;;;;;;19.55;11.77;;;;;;;4.61;57.95;100351.31;4815815;29;115301;-67
2021/01/31 11:11:18;;;;;;;17.90;11.75;;;;;;;4.69;58.08;100344.09;4803099;29;124388;-67
2021/01/31 11:13:45;;;;;;;17.17;11.20;;;;;;;4.76;57.85;100343.00;4821005;29;124725;-68
2021/01/31 11:16:12;;;;;;;15.73;11.27;;;;;;;4.80;57.84;100336.78;4838646;29;114432;-67
2021/01/31 11:18:38;;;;;;;19.92;11.98;;;;;;;4.86;57.84;100335.75;4835627;29;114584;-67
2021/01/31 11:21:05;;;;;;;17.75;12.73;;;;;;;4.93;57.59;100315.41;4821910;29;123321;-67
2021/01/31 11:23:32;;;;;;;17.98;10.77;;;;;;;4.98;57.56;100313.50;4831659;29;123783;-67
2021/01/31 11:25:58;;;;;;;16.55;10.73;;;;;;;5.06;57.50;100311.50;4805089;29;114734;-67
2021/01/31 11:28:25;;;;;;;18.45;12.00;;;;;;;5.13;57.07;100312.19;4817276;29;113467;-67
2021/01/31 11:30:51;;;;;;;17.52;11.55;;;;;;;5.18;57.10;100300.63;4806877;29;124366;-67
2021/01/31 11:33:18;;;;;;;19.75;12.25;;;;;;;5.21;57.01;100297.88;4817221;29;123855;-67
2021/01/31 11:35:44;;;;;;;18.63;11.57;;;;;;;5.28;56.92;100295.09;4819610;29;114534;-66
2021/01/31 11:38:11;;;;;;;18.70;11.75;;;;;;;5.32;57.02;100286.19;4818433;29;113935;-67
2021/01/31 11:40:38;;;;;;;16.52;10.63;;;;;;;5.36;56.68;100288.66;4805701;29;123650;-67